Childress Municipal Airport
KCDS : now visible

Airfield :











YOU CAN JOIN US ON...

 
LOGIN :

Register | Disclaimer

   EN    FR    IT 

 









Legend :    VFR   Marginal VFR   IFR   Intensive IFR   Very Intensive IFR
Visi :
Ceiling :
>= 8 km
>= 3000ft
5 to 8 km
1000 to 3000 ft
1500m to 5 km
500 to 1000 ft
800 to 1500m
200 to 500 ft
< 800m
< 200 ft
Symbols :   Thunderstorms  Fog  Heavy snow  Heavy precipitations  Wind > 20 kt







- Airport Elevation : 1954 ft


KCDS - Childress Municipal

CURRENT METAR :
  • 220953Z AUTO 18007KT 5SM BR SCT039 BKN080 21/21 A2996 RMK AO2 SLP121 T02110206

EXPIRED METARs :
  • 220853Z AUTO 18008KT 7SM BKN075 OVC095 21/21 A2995 RMK AO2 SLP119 60001 T02110206 58001
  • 220753Z AUTO 17007KT 8SM OVC070 21/21 A2996 RMK AO2 RAB26E46 SLP122 P0001 T02110206
  • 220710Z AUTO 17007KT 7SM SCT002 SCT080 OVC100 21/21 A2996 RMK AO2 T02110206

TAF KCDS
Valid from the 22 at 08:00 until the 23 at 06:00 UTC


220757Z 2208/2306 17007KT P6SM OVC070
FM220900 17008KT P6SM OVC040
FM221000 18008KT 4SM BR OVC050
FM221100 20009KT 4SM BR OVC100
FM221400 22011KT P6SM OVC050
FM221800 32011KT P6SM OVC050
No reported NOTAMs for that airfield.



MET'MAP, your aeronautical weather chart ! - Copyright ORBIFLY December 2007 - Disclaimer

ORBIFLY MET'MAP TEAM :

Programming & Development : Alexandra Zaïnal
Concept & Development : Baudouin d'Aumeries
Co-Development & Prog : Marc-Olivier Méhu
Technical & hardware support : Manuel Goepfert

Contact : metmap@orbifly.com




SOURCES & CREDITS :

   NOAA       Earth
Advisory